createdAt,value
2018-10-07T00:07:26.197Z,55.7
2018-10-07T00:28:47.493Z,56.1
2018-10-07T00:39:01.485Z,57.6
2018-10-07T00:49:15.756Z,57.9
2018-10-07T00:59:31.243Z,56.8
2018-10-07T01:09:43.383Z,56.9
2018-10-07T01:19:57.682Z,56.5
2018-10-07T01:30:42.783Z,57.0
2018-10-07T01:41:28.029Z,57.0
2018-10-07T01:52:13.089Z,56.8
2018-10-07T02:02:26.617Z,57.3
2018-10-07T02:13:13.240Z,56.9
2018-10-07T02:23:57.897Z,57.4
2018-10-07T02:34:11.337Z,57.5
2018-10-07T02:45:31.798Z,57.3
2018-10-07T02:55:43.018Z,57.3
2018-10-07T03:05:57.521Z,56.8
2018-10-07T03:16:11.717Z,56.9
2018-10-07T03:26:25.931Z,57.2
2018-10-07T03:36:38.150Z,56.8
2018-10-07T03:46:52.483Z,56.4
2018-10-07T03:57:06.861Z,57.0
2018-10-07T04:09:22.811Z,56.3
2018-10-07T04:20:50.384Z,56.0
2018-10-07T04:32:37.788Z,56.1
2018-10-07T04:55:36.499Z,55.9
2018-10-07T05:07:09.071Z,55.9
2018-10-07T05:19:41.806Z,55.7
2018-10-07T05:32:11.821Z,55.3
2018-10-07T06:02:38.025Z,54.8
2018-10-07T06:18:45.405Z,54.2
2018-10-07T06:56:50.279Z,53.9
2018-10-07T07:52:45.589Z,55.1
2018-10-07T08:19:36.991Z,52.4
2018-10-07T08:32:15.612Z,46.4
2018-10-07T08:44:37.082Z,41.8
2018-10-07T09:10:41.780Z,34.9
2018-10-07T09:27:11.331Z,32.5
2018-10-07T09:56:25.204Z,31.3
2018-10-07T10:10:37.161Z,30.3
2018-10-07T10:38:25.221Z,34.7
2018-10-07T10:52:07.411Z,33.8
2018-10-07T11:02:24.899Z,34.7
2018-10-07T11:12:38.052Z,35.7
2018-10-07T11:22:51.458Z,35.4
2018-10-07T11:35:46.793Z,34.2
2018-10-07T11:46:02.274Z,33.2
2018-10-07T11:56:18.925Z,33.1
2018-10-07T12:06:33.122Z,32.5
2018-10-07T12:16:44.530Z,32.9
2018-10-07T12:26:58.572Z,32.3
2018-10-07T12:37:44.325Z,30.2
2018-10-07T12:47:58.544Z,29.6
2018-10-07T12:58:12.893Z,30.3
2018-10-07T13:08:59.292Z,30.9
2018-10-07T13:20:48.541Z,31.4
2018-10-07T13:32:17.941Z,33.8
2018-10-07T13:43:57.273Z,33.5
2018-10-07T13:56:12.272Z,35.5
2018-10-07T14:06:26.232Z,35.2
2018-10-07T14:16:40.643Z,35.4
2018-10-07T14:27:59.624Z,36.2
2018-10-07T14:38:13.257Z,36.3
2018-10-07T15:42:48.935Z,36.0
2018-10-07T15:53:03.553Z,36.5
2018-10-07T16:16:16.729Z,38.0
2018-10-07T16:27:27.268Z,38.7
2018-10-07T16:38:18.295Z,39.2
2018-10-07T16:50:59.913Z,39.8
2018-10-07T17:02:06.019Z,40.8
2018-10-07T17:27:17.686Z,42.0
2018-10-07T18:18:20.302Z,44.3
2018-10-07T19:28:25.602Z,46.9
2018-10-07T19:38:43.251Z,47.4
2018-10-07T19:51:41.843Z,48.6
2018-10-07T20:39:21.421Z,47.9
2018-10-07T20:52:31.404Z,48.5
2018-10-07T21:04:17.492Z,49.0
2018-10-07T21:16:14.151Z,49.1
2018-10-07T21:29:15.596Z,49.1
2018-10-07T21:42:46.441Z,49.4
2018-10-07T21:54:53.606Z,49.3
2018-10-07T22:07:01.401Z,49.5
2018-10-07T22:41:21.270Z,49.7
2018-10-07T23:07:02.526Z,49.4
2018-10-07T23:19:18.022Z,49.4
2018-10-07T23:29:34.263Z,49.6
2018-10-07T23:41:50.102Z,48.7
2018-10-07T23:55:52.666Z,48.6
